createdAt,value
2023-04-02T00:01:56.225Z,4.00
2023-04-02T00:04:23.928Z,3.80
2023-04-02T00:07:33.299Z,3.90
2023-04-02T00:10:00.424Z,3.90
2023-04-02T00:12:27.344Z,3.90
2023-04-02T00:14:55.975Z,3.90
2023-04-02T00:17:26.015Z,3.90
2023-04-02T00:20:07.007Z,3.80
2023-04-02T00:22:34.199Z,3.90
2023-04-02T00:25:14.219Z,3.80
2023-04-02T00:27:41.915Z,3.90
2023-04-02T00:30:12.999Z,3.80
2023-04-02T00:32:40.220Z,3.80
2023-04-02T00:35:26.122Z,3.80
2023-04-02T00:37:53.663Z,3.70
2023-04-02T00:40:31.819Z,3.70
2023-04-02T00:43:01.154Z,3.70
2023-04-02T00:45:35.366Z,3.70
2023-04-02T00:48:31.722Z,3.80
2023-04-02T00:51:38.560Z,3.80
2023-04-02T00:54:15.722Z,3.70
2023-04-02T00:56:50.583Z,3.80
2023-04-02T00:59:38.265Z,3.70
2023-04-02T01:02:19.951Z,3.60
2023-04-02T01:04:57.758Z,3.60
2023-04-02T01:08:05.165Z,3.60
2023-04-02T01:11:08.495Z,3.60
2023-04-02T01:13:58.980Z,3.70
2023-04-02T01:16:46.656Z,3.70
2023-04-02T01:20:14.748Z,3.80
2023-04-02T01:23:11.785Z,3.70
2023-04-02T01:25:38.570Z,3.70
2023-04-02T01:28:25.600Z,3.60
2023-04-02T01:30:56.480Z,3.50
2023-04-02T01:33:29.827Z,3.40
2023-04-02T01:36:24.006Z,3.50
2023-04-02T01:39:40.005Z,3.40
2023-04-02T01:42:34.037Z,3.60
2023-04-02T01:45:19.521Z,3.40
2023-04-02T01:47:46.838Z,3.40
2023-04-02T01:50:19.777Z,3.50
2023-04-02T01:52:49.564Z,3.50
2023-04-02T01:55:25.755Z,3.40
2023-04-02T01:57:54.266Z,3.50
2023-04-02T02:00:22.499Z,3.60
2023-04-02T02:02:51.867Z,3.70
2023-04-02T02:05:23.097Z,3.70
2023-04-02T02:07:51.471Z,3.70
2023-04-02T02:10:35.395Z,3.70
2023-04-02T02:13:03.724Z,3.70
2023-04-02T02:15:34.194Z,3.80
2023-04-02T02:18:05.913Z,3.80
2023-04-02T02:20:35.093Z,3.80
2023-04-02T02:23:04.202Z,3.80
2023-04-02T02:25:36.062Z,3.80
2023-04-02T02:28:10.176Z,3.80
2023-04-02T02:30:49.278Z,3.70
2023-04-02T02:33:28.873Z,3.80
2023-04-02T02:36:18.836Z,3.90
2023-04-02T02:39:01.020Z,3.90
2023-04-02T02:41:42.746Z,3.90
2023-04-02T02:44:09.574Z,3.90
2023-04-02T02:46:56.375Z,3.80
2023-04-02T02:49:37.076Z,3.80
2023-04-02T02:52:13.790Z,3.90
2023-04-02T02:54:57.385Z,3.90
2023-04-02T02:57:33.731Z,3.90
2023-04-02T03:00:05.573Z,3.70
2023-04-02T03:02:38.812Z,3.70
2023-04-02T03:05:07.617Z,3.60
2023-04-02T03:07:35.040Z,3.50
2023-04-02T03:10:17.826Z,3.50
2023-04-02T03:12:56.242Z,3.50
2023-04-02T03:15:38.525Z,3.60
2023-04-02T03:18:30.699Z,3.60
2023-04-02T03:21:24.207Z,3.60
2023-04-02T03:24:17.950Z,3.50
2023-04-02T03:26:57.433Z,3.50
2023-04-02T03:29:33.420Z,3.50
2023-04-02T03:32:19.198Z,3.50
2023-04-02T03:35:05.770Z,3.50
2023-04-02T03:37:46.007Z,3.50
2023-04-02T03:40:31.637Z,3.50
2023-04-02T03:43:20.387Z,3.50
2023-04-02T03:45:56.927Z,3.40
2023-04-02T03:48:41.109Z,3.50
2023-04-02T03:51:37.342Z,3.50
2023-04-02T03:54:05.582Z,3.30
2023-04-02T03:56:40.371Z,3.40
2023-04-02T03:59:27.848Z,3.40
2023-04-02T04:02:26.728Z,3.40
2023-04-02T04:04:56.363Z,3.30
2023-04-02T04:07:41.382Z,3.30
2023-04-02T04:10:18.477Z,3.40
2023-04-02T04:12:50.618Z,3.30
2023-04-02T04:15:26.945Z,3.30
2023-04-02T04:18:34.985Z,3.40
2023-04-02T04:21:22.801Z,3.50
2023-04-02T04:23:51.386Z,3.50
2023-04-02T04:26:49.503Z,3.60
2023-04-02T04:29:46.623Z,3.60
2023-04-02T04:32:39.204Z,3.60
2023-04-02T04:35:34.282Z,3.50
2023-04-02T04:38:12.117Z,3.50
2023-04-02T04:40:52.421Z,3.60
2023-04-02T04:43:46.533Z,3.60
2023-04-02T04:46:32.422Z,3.60
2023-04-02T04:49:31.697Z,3.70
2023-04-02T04:52:15.419Z,3.80
2023-04-02T04:54:42.483Z,3.60
2023-04-02T04:57:29.913Z,3.70
2023-04-02T05:00:25.709Z,3.70
2023-04-02T05:03:17.048Z,3.80
2023-04-02T05:05:45.694Z,3.80
2023-04-02T05:08:27.012Z,3.80
2023-04-02T05:11:13.297Z,3.90
2023-04-02T05:14:00.721Z,3.90
2023-04-02T05:17:05.319Z,3.90
2023-04-02T05:19:49.041Z,3.80
2023-04-02T05:22:24.389Z,3.70
2023-04-02T05:25:17.155Z,3.80
2023-04-02T05:27:54.059Z,3.80
2023-04-02T05:30:23.901Z,3.70
2023-04-02T05:33:17.702Z,3.70
2023-04-02T05:35:50.491Z,3.80
2023-04-02T05:38:31.904Z,3.90
2023-04-02T05:41:21.577Z,3.90
2023-04-02T05:43:54.323Z,3.90
2023-04-02T05:46:30.781Z,4.00
2023-04-02T05:49:00.054Z,4.00
2023-04-02T05:51:42.794Z,4.00
2023-04-02T05:54:51.520Z,4.10
2023-04-02T05:57:43.843Z,4.00
2023-04-02T06:00:24.274Z,4.00
2023-04-02T06:03:01.852Z,4.10
2023-04-02T06:05:39.605Z,4.10
2023-04-02T06:08:25.606Z,4.00
2023-04-02T06:11:20.889Z,4.10
2023-04-02T06:13:47.868Z,4.10
2023-04-02T06:16:16.582Z,4.00
2023-04-02T06:18:44.580Z,4.00
2023-04-02T06:21:17.684Z,4.20
2023-04-02T06:23:56.945Z,4.20
2023-04-02T06:26:33.583Z,4.20
2023-04-02T06:29:07.709Z,4.20
2023-04-02T06:31:59.586Z,4.20
2023-04-02T06:34:29.748Z,4.30
2023-04-02T06:37:03.353Z,4.30
2023-04-02T06:39:30.977Z,4.30
2023-04-02T06:42:29.619Z,4.20
2023-04-02T06:44:56.863Z,4.30
2023-04-02T06:47:29.917Z,4.30
2023-04-02T06:50:22.345Z,4.30
2023-04-02T06:53:09.616Z,4.30
2023-04-02T06:55:55.652Z,4.30
2023-04-02T06:58:22.519Z,4.30
2023-04-02T07:00:51.077Z,4.30
2023-04-02T07:03:27.200Z,4.30
2023-04-02T07:05:54.701Z,4.40
2023-04-02T07:08:22.358Z,4.30
2023-04-02T07:10:49.617Z,4.40
2023-04-02T07:13:20.609Z,4.50
2023-04-02T07:15:53.645Z,4.40
2023-04-02T07:18:29.308Z,4.30
2023-04-02T07:20:56.762Z,4.40
2023-04-02T07:23:24.134Z,4.50
2023-04-02T07:25:56.775Z,4.50
2023-04-02T07:28:23.714Z,4.60
2023-04-02T07:30:52.426Z,4.60
2023-04-02T07:33:23.791Z,4.60
2023-04-02T07:35:53.449Z,4.80
2023-04-02T07:38:21.168Z,4.70
2023-04-02T07:40:48.071Z,4.80
2023-04-02T07:43:15.790Z,4.90
2023-04-02T07:45:42.677Z,5.00
2023-04-02T07:48:13.196Z,4.90
2023-04-02T07:50:40.108Z,4.90
2023-04-02T07:53:08.799Z,4.90
2023-04-02T07:55:36.307Z,4.90
2023-04-02T07:58:04.163Z,5.00
2023-04-02T08:00:31.313Z,4.90
2023-04-02T08:02:58.334Z,5.00
2023-04-02T08:05:26.406Z,5.00
2023-04-02T08:07:57.531Z,4.90
2023-04-02T08:10:24.784Z,5.00
2023-04-02T08:12:51.791Z,5.00
2023-04-02T08:15:19.274Z,5.00
2023-04-02T08:17:46.755Z,5.00
2023-04-02T08:20:20.225Z,5.00
2023-04-02T08:22:48.604Z,5.00
2023-04-02T08:25:16.554Z,5.00
2023-04-02T08:27:46.398Z,5.00
2023-04-02T08:30:14.728Z,5.00
2023-04-02T08:32:41.706Z,5.00
2023-04-02T08:35:11.942Z,5.10
2023-04-02T08:37:38.942Z,5.10
2023-04-02T08:40:07.573Z,5.10
2023-04-02T08:43:23.725Z,5.20
2023-04-02T08:46:06.533Z,5.20
2023-04-02T08:48:40.181Z,5.20
2023-04-02T08:51:26.248Z,5.20
2023-04-02T08:54:02.211Z,5.30
2023-04-02T08:56:36.752Z,5.40
2023-04-02T08:59:18.533Z,5.40
2023-04-02T09:02:21.181Z,5.30
2023-04-02T09:04:48.597Z,5.30
2023-04-02T09:07:17.677Z,5.30
2023-04-02T09:09:48.832Z,5.30
2023-04-02T09:12:31.816Z,5.30
2023-04-02T09:15:11.199Z,5.30
2023-04-02T09:17:53.089Z,5.30
2023-04-02T09:20:26.511Z,5.30
2023-04-02T09:22:55.648Z,5.30
2023-04-02T09:25:38.048Z,5.30
2023-04-02T09:28:05.893Z,5.30
2023-04-02T09:30:32.738Z,5.20
2023-04-02T09:33:07.866Z,5.20
2023-04-02T09:35:54.039Z,5.20
2023-04-02T09:38:24.996Z,5.20
2023-04-02T09:41:21.164Z,5.30
2023-04-02T09:43:48.046Z,5.30
2023-04-02T09:46:26.150Z,5.30
2023-04-02T09:49:01.111Z,5.40
2023-04-02T09:51:34.249Z,5.50
2023-04-02T09:54:04.110Z,5.50
2023-04-02T09:56:35.116Z,5.50
2023-04-02T09:59:13.654Z,5.30
2023-04-02T10:01:49.791Z,5.40
2023-04-02T10:04:46.880Z,5.30
2023-04-02T10:07:43.716Z,5.40
2023-04-02T10:10:59.676Z,5.50
2023-04-02T10:13:35.335Z,5.60
2023-04-02T10:16:33.536Z,5.60
2023-04-02T10:19:22.724Z,5.70
2023-04-02T10:21:52.339Z,5.80
2023-04-02T10:24:19.486Z,5.80
2023-04-02T10:27:22.528Z,5.80
2023-04-02T10:30:16.348Z,6.00
2023-04-02T10:33:12.009Z,5.90
2023-04-02T10:36:09.219Z,5.90
2023-04-02T10:38:45.034Z,5.90
2023-04-02T10:41:36.515Z,6.00
2023-04-02T10:44:33.439Z,6.10
2023-04-02T10:47:27.917Z,6.20
2023-04-02T10:50:44.884Z,6.30
2023-04-02T10:53:21.361Z,6.30
2023-04-02T10:56:03.499Z,6.30
2023-04-02T10:58:50.138Z,6.30
2023-04-02T11:01:25.078Z,6.40
2023-04-02T11:04:08.798Z,6.20
2023-04-02T11:07:03.481Z,6.30
2023-04-02T11:09:45.425Z,6.30
2023-04-02T11:12:26.328Z,6.30
2023-04-02T11:14:56.206Z,6.20
2023-04-02T11:17:24.751Z,6.30
2023-04-02T11:19:52.637Z,6.00
2023-04-02T11:22:26.043Z,6.00
2023-04-02T11:24:56.001Z,6.00
2023-04-02T11:27:25.669Z,6.10
2023-04-02T11:30:24.365Z,6.20
2023-04-02T11:32:51.905Z,6.20
2023-04-02T11:35:39.543Z,6.20
2023-04-02T11:38:12.571Z,6.30
2023-04-02T11:40:56.028Z,6.50
2023-04-02T11:43:35.866Z,6.70
2023-04-02T11:46:17.593Z,6.90
2023-04-02T11:48:45.308Z,7.00
2023-04-02T11:51:22.510Z,7.00
2023-04-02T11:53:54.912Z,7.00
2023-04-02T11:56:41.190Z,6.90
2023-04-02T11:59:21.097Z,6.70
2023-04-02T12:02:00.429Z,6.70
2023-04-02T12:05:09.185Z,6.70
2023-04-02T12:08:05.221Z,6.70
2023-04-02T12:10:51.394Z,6.80
2023-04-02T12:13:20.767Z,6.90
2023-04-02T12:15:52.258Z,6.70
2023-04-02T12:18:24.199Z,6.70
2023-04-02T12:20:57.166Z,6.60
2023-04-02T12:23:32.688Z,6.80
2023-04-02T12:26:03.411Z,6.70
2023-04-02T12:28:33.776Z,6.60
2023-04-02T12:31:14.571Z,6.60
2023-04-02T12:33:42.808Z,6.60
2023-04-02T12:36:14.436Z,6.30
2023-04-02T12:38:48.843Z,6.40
2023-04-02T12:41:32.183Z,6.50
2023-04-02T12:44:05.108Z,6.50
2023-04-02T12:46:34.786Z,6.50
2023-04-02T12:49:23.315Z,6.40
2023-04-02T12:51:52.046Z,6.40
2023-04-02T12:54:20.673Z,6.40
2023-04-02T12:56:48.835Z,6.40
2023-04-02T12:59:30.688Z,6.50
2023-04-02T13:02:14.908Z,6.50
2023-04-02T13:04:54.649Z,6.60
2023-04-02T13:07:25.863Z,6.60
2023-04-02T13:10:01.544Z,6.70
2023-04-02T13:12:34.949Z,6.60
2023-04-02T13:15:08.605Z,6.50
2023-04-02T13:17:44.210Z,6.30
2023-04-02T13:20:41.417Z,6.30
2023-04-02T13:23:25.419Z,6.50
2023-04-02T13:25:52.507Z,6.60
2023-04-02T13:28:20.905Z,6.70
2023-04-02T13:30:48.338Z,6.70
2023-04-02T13:33:16.162Z,6.60
2023-04-02T13:35:44.374Z,6.60
2023-04-02T13:38:11.316Z,6.30
2023-04-02T13:40:39.199Z,6.40
2023-04-02T13:43:08.050Z,6.40
2023-04-02T13:45:40.758Z,6.50
2023-04-02T13:48:15.941Z,6.30
2023-04-02T13:50:43.078Z,6.50
2023-04-02T13:53:24.096Z,6.40
2023-04-02T13:55:52.601Z,6.40
2023-04-02T13:58:19.862Z,6.50
2023-04-02T14:00:47.747Z,6.40
2023-04-02T14:03:23.759Z,6.50
2023-04-02T14:06:03.012Z,6.60
2023-04-02T14:09:16.999Z,6.60
2023-04-02T14:12:05.986Z,6.60
2023-04-02T14:15:16.390Z,6.80
2023-04-02T14:18:23.680Z,6.60
2023-04-02T14:21:26.674Z,6.70
2023-04-02T14:24:23.357Z,6.70
2023-04-02T14:27:31.219Z,6.60
2023-04-02T14:30:37.272Z,6.60
2023-04-02T14:33:40.846Z,6.50
2023-04-02T14:36:15.642Z,6.50
2023-04-02T14:39:09.166Z,6.40
2023-04-02T14:42:00.401Z,6.20
2023-04-02T14:44:38.147Z,6.00
2023-04-02T14:47:34.071Z,6.10
2023-04-02T14:50:28.391Z,6.00
2023-04-02T14:53:03.959Z,6.20
2023-04-02T14:55:40.676Z,6.20
2023-04-02T14:58:21.229Z,6.30
2023-04-02T15:01:13.997Z,6.30
2023-04-02T15:03:49.841Z,6.40
2023-04-02T15:06:27.718Z,6.40
2023-04-02T15:09:09.332Z,6.20
2023-04-02T15:11:47.189Z,6.20
2023-04-02T15:14:19.475Z,6.30
2023-04-02T15:16:46.640Z,6.30
2023-04-02T15:19:17.911Z,6.30
2023-04-02T15:22:08.818Z,6.20
2023-04-02T15:24:58.991Z,6.20
2023-04-02T15:27:51.276Z,6.30
2023-04-02T15:30:37.919Z,6.00
2023-04-02T15:33:52.797Z,6.10
2023-04-02T15:36:50.903Z,6.00
2023-04-02T15:39:28.147Z,6.10
2023-04-02T15:42:36.953Z,6.00
2023-04-02T15:45:12.663Z,6.00
2023-04-02T15:48:17.375Z,5.90
2023-04-02T15:50:50.340Z,5.80
2023-04-02T15:53:34.279Z,5.70
2023-04-02T15:56:25.161Z,5.70
2023-04-02T15:59:14.103Z,5.60
2023-04-02T16:02:12.268Z,5.50
2023-04-02T16:05:04.047Z,5.60
2023-04-02T16:08:02.335Z,5.20
2023-04-02T16:10:42.102Z,5.40
2023-04-02T16:13:29.876Z,5.40
2023-04-02T16:16:25.675Z,5.40
2023-04-02T16:19:20.896Z,5.40
2023-04-02T16:22:06.926Z,5.30
2023-04-02T16:24:33.868Z,5.10
2023-04-02T16:27:29.448Z,5.20
2023-04-02T16:30:19.392Z,5.20
2023-04-02T16:33:17.255Z,5.20
2023-04-02T16:36:28.453Z,5.20
2023-04-02T16:39:23.799Z,5.20
2023-04-02T16:42:17.337Z,5.10
2023-04-02T16:45:08.291Z,5.10
2023-04-02T16:48:04.298Z,5.10
2023-04-02T16:51:19.920Z,5.00
2023-04-02T16:54:23.509Z,5.00
2023-04-02T16:57:21.119Z,5.10
2023-04-02T17:00:07.818Z,5.00
2023-04-02T17:03:02.508Z,4.90
2023-04-02T17:05:36.111Z,4.90
2023-04-02T17:08:21.046Z,4.90
2023-04-02T17:11:08.528Z,4.80
2023-04-02T17:13:53.139Z,4.70
2023-04-02T17:16:32.219Z,4.70
2023-04-02T17:19:01.404Z,4.60
2023-04-02T17:21:31.205Z,4.70
2023-04-02T17:24:25.886Z,4.70
2023-04-02T17:27:03.637Z,4.80
2023-04-02T17:29:40.866Z,4.70
2023-04-02T17:32:22.069Z,4.50
2023-04-02T17:34:48.969Z,4.40
2023-04-02T17:37:42.247Z,4.40
2023-04-02T17:40:35.077Z,4.40
2023-04-02T17:43:31.207Z,4.30
2023-04-02T17:46:24.870Z,4.30
2023-04-02T17:49:08.192Z,4.30
2023-04-02T17:51:59.735Z,4.30
2023-04-02T17:55:03.882Z,4.30
2023-04-02T17:58:09.813Z,4.00
2023-04-02T18:01:00.863Z,4.10
2023-04-02T18:03:53.825Z,4.00
2023-04-02T18:07:04.317Z,4.10
2023-04-02T18:10:03.718Z,4.00
2023-04-02T18:12:52.202Z,4.00
2023-04-02T18:16:06.543Z,3.90
2023-04-02T18:18:58.241Z,3.90
2023-04-02T18:21:31.864Z,4.00
2023-04-02T18:24:13.323Z,4.00
2023-04-02T18:27:12.308Z,3.90
2023-04-02T18:30:18.042Z,3.90
2023-04-02T18:32:59.026Z,3.90
2023-04-02T18:36:02.499Z,3.90
2023-04-02T18:38:58.875Z,3.90
2023-04-02T18:41:47.623Z,3.90
2023-04-02T18:44:40.362Z,3.90
2023-04-02T18:47:36.774Z,3.80
2023-04-02T18:50:12.876Z,3.70
2023-04-02T18:52:41.435Z,3.70
2023-04-02T18:55:20.812Z,3.60
2023-04-02T18:57:56.022Z,3.70
2023-04-02T19:00:38.708Z,3.70
2023-04-02T19:03:35.360Z,3.70
2023-04-02T19:06:09.088Z,3.60
2023-04-02T19:08:59.625Z,3.60
2023-04-02T19:11:31.310Z,3.60
2023-04-02T19:14:05.025Z,3.50
2023-04-02T19:16:58.367Z,3.50
2023-04-02T19:19:38.326Z,3.50
2023-04-02T19:22:26.759Z,3.50
2023-04-02T19:25:15.152Z,3.50
2023-04-02T19:28:03.430Z,3.50
2023-04-02T19:31:03.655Z,3.40
2023-04-02T19:34:11.107Z,3.40
2023-04-02T19:37:15.611Z,3.40
2023-04-02T19:40:45.606Z,3.30
2023-04-02T19:43:12.650Z,3.30
2023-04-02T19:45:47.804Z,3.30
2023-04-02T19:48:29.901Z,3.30
2023-04-02T19:50:56.911Z,3.40
2023-04-02T19:53:23.759Z,3.40
2023-04-02T19:55:51.169Z,3.40
2023-04-02T19:58:31.643Z,3.40
2023-04-02T20:00:59.458Z,3.50
2023-04-02T20:03:26.903Z,3.40
2023-04-02T20:05:54.312Z,3.40
2023-04-02T20:08:21.421Z,3.30
2023-04-02T20:10:48.535Z,3.30
2023-04-02T20:13:15.461Z,3.30
2023-04-02T20:15:42.426Z,3.40
2023-04-02T20:18:10.481Z,3.30
2023-04-02T20:20:39.316Z,3.20
2023-04-02T20:23:06.363Z,3.20
2023-04-02T20:25:33.248Z,3.30
2023-04-02T20:28:01.152Z,3.30
2023-04-02T20:30:28.036Z,3.30
2023-04-02T20:32:57.679Z,3.30
2023-04-02T20:35:25.534Z,3.30
2023-04-02T20:37:52.809Z,3.30
2023-04-02T20:40:19.828Z,3.30
2023-04-02T20:42:46.781Z,3.30
2023-04-02T20:45:13.890Z,3.30
2023-04-02T20:47:40.875Z,3.20
2023-04-02T20:50:08.526Z,3.20
2023-04-02T20:52:35.733Z,3.20
2023-04-02T20:55:03.570Z,3.20
2023-04-02T20:57:33.650Z,3.30
2023-04-02T21:00:02.841Z,3.30
2023-04-02T21:02:29.703Z,3.20
2023-04-02T21:04:56.734Z,3.20
2023-04-02T21:07:23.715Z,3.30
2023-04-02T21:09:51.859Z,3.30
2023-04-02T21:12:19.600Z,3.20
2023-04-02T21:14:48.356Z,3.20
2023-04-02T21:17:16.061Z,3.20
2023-04-02T21:19:45.534Z,3.20
2023-04-02T21:22:12.400Z,3.20
2023-04-02T21:24:39.386Z,3.10
2023-04-02T21:27:06.308Z,3.10
2023-04-02T21:29:33.207Z,3.10
2023-04-02T21:32:03.388Z,3.00
2023-04-02T21:34:35.235Z,3.00
2023-04-02T21:37:02.098Z,2.90
2023-04-02T21:39:29.110Z,3.00
2023-04-02T21:41:56.031Z,3.10
2023-04-02T21:44:24.582Z,3.00
2023-04-02T21:46:54.182Z,3.00
2023-04-02T21:49:23.138Z,3.00
2023-04-02T21:51:54.159Z,3.10
2023-04-02T21:54:21.326Z,3.10
2023-04-02T21:56:48.651Z,3.10
2023-04-02T21:59:17.718Z,3.10
2023-04-02T22:01:49.130Z,3.20
2023-04-02T22:04:25.056Z,3.30
2023-04-02T22:06:53.687Z,3.30
2023-04-02T22:09:24.260Z,3.30
2023-04-02T22:11:55.283Z,3.30
2023-04-02T22:14:22.711Z,3.30
2023-04-02T22:16:49.654Z,3.30
2023-04-02T22:19:17.094Z,3.30
2023-04-02T22:21:45.016Z,3.40
2023-04-02T22:24:16.037Z,3.30
2023-04-02T22:26:44.501Z,3.40
2023-04-02T22:29:11.826Z,3.40
2023-04-02T22:31:38.698Z,3.40
2023-04-02T22:34:06.901Z,3.30
2023-04-02T22:36:34.767Z,3.30
2023-04-02T22:39:05.483Z,3.40
2023-04-02T22:41:32.670Z,3.50
2023-04-02T22:44:02.026Z,3.40
2023-04-02T22:46:30.998Z,3.40
2023-04-02T22:49:01.493Z,3.50
2023-04-02T22:51:29.059Z,3.50
2023-04-02T22:53:57.000Z,3.40
2023-04-02T22:56:28.777Z,3.30
2023-04-02T22:58:55.808Z,3.40
2023-04-02T23:01:31.452Z,3.40
2023-04-02T23:03:58.409Z,3.40
2023-04-02T23:06:26.451Z,3.40
2023-04-02T23:08:53.598Z,3.50
2023-04-02T23:11:24.662Z,3.50
2023-04-02T23:13:54.542Z,3.50
2023-04-02T23:16:22.849Z,3.50
2023-04-02T23:18:50.362Z,3.50
2023-04-02T23:21:19.749Z,3.50
2023-04-02T23:23:48.416Z,3.50
2023-04-02T23:26:18.573Z,3.50
2023-04-02T23:28:46.049Z,3.40
2023-04-02T23:31:16.930Z,3.40
2023-04-02T23:33:44.426Z,3.40
2023-04-02T23:36:18.883Z,3.40
2023-04-02T23:38:45.772Z,3.40
2023-04-02T23:41:15.917Z,3.50
2023-04-02T23:43:43.865Z,3.50
2023-04-02T23:46:11.920Z,3.50
2023-04-02T23:48:38.845Z,3.60
2023-04-02T23:51:06.999Z,3.50
2023-04-02T23:53:35.570Z,3.50
2023-04-02T23:56:02.682Z,3.50
2023-04-02T23:58:29.578Z,3.50
